Elvaston, Illinois
Current Conditions -  °F | °C
As of 5:15 PM on Friday 31 Oct 2014 (Local Time) from KEOK Reporting Station
Clear Clear  
Wind Chill: 36°   Ceiling: Unl
Heat Index: 43°   Visibility: 10mi
Dew Point: 21°   Wind: 14mph
Humidity: 42%   Direction: 350°N
Pressure: 30.38"   Gusts: 22mph
Location:  40.4°N, 91.25°W
Report Text: KEOK 312215Z AUTO 35012G19KT 10SM CLR 06/M06 A3038 RMK AO2
Loading
Personal Weather Stations






























Interactive Weather Map
Tropical Storm Tracking
New forecast layout! Learn more

10-Day Weather Forecast

Advertisements
Track Severe Weather on mobile